createdAt,value
2018-02-11T00:01:22.477Z,94.50
2018-02-11T00:03:48.555Z,94.30
2018-02-11T00:06:14.654Z,94.30
2018-02-11T00:08:41.485Z,95.10
2018-02-11T00:11:08.013Z,94.40
2018-02-11T00:13:34.090Z,94.30
2018-02-11T00:16:00.185Z,94.20
2018-02-11T00:18:27.025Z,94.10
2018-02-11T00:20:53.692Z,94.10
2018-02-11T00:23:19.765Z,94.00
2018-02-11T00:25:45.846Z,94.40
2018-02-11T00:28:11.947Z,94.70
2018-02-11T00:30:38.029Z,94.70
2018-02-11T00:33:04.127Z,94.50
2018-02-11T00:35:30.226Z,94.30
2018-02-11T00:38:03.081Z,94.90
2018-02-11T00:40:29.153Z,94.60
2018-02-11T00:42:55.305Z,94.60
2018-02-11T00:45:21.381Z,94.70
2018-02-11T00:47:48.219Z,94.80
2018-02-11T00:50:15.046Z,94.50
2018-02-11T00:52:41.137Z,94.40
2018-02-11T00:55:07.220Z,94.20
2018-02-11T00:57:33.545Z,94.50
2018-02-11T01:00:00.382Z,94.00
2018-02-11T01:02:26.462Z,93.80
2018-02-11T01:04:52.541Z,93.90
2018-02-11T01:07:19.377Z,93.60
2018-02-11T01:09:45.481Z,93.50
2018-02-11T01:12:11.553Z,93.40
2018-02-11T01:14:37.643Z,93.50
2018-02-11T01:17:03.742Z,93.60
2018-02-11T01:19:29.838Z,93.80
2018-02-11T01:21:55.929Z,93.70
2018-02-11T01:24:22.045Z,93.80
2018-02-11T01:26:48.127Z,94.00
2018-02-11T01:29:14.210Z,93.80
2018-02-11T01:31:40.337Z,93.80
2018-02-11T01:34:06.430Z,93.70
2018-02-11T01:36:32.506Z,93.70
2018-02-11T01:38:58.594Z,93.90
2018-02-11T01:41:25.413Z,94.00
2018-02-11T01:43:51.516Z,94.00
2018-02-11T01:46:18.152Z,94.10
2018-02-11T01:48:44.230Z,94.50
2018-02-11T01:51:10.313Z,94.80
2018-02-11T01:53:36.381Z,95.50
2018-02-11T01:56:02.713Z,95.50
2018-02-11T01:58:28.773Z,95.30
2018-02-11T02:00:54.897Z,95.50
2018-02-11T02:03:20.977Z,95.50
2018-02-11T02:05:47.063Z,95.50
2018-02-11T02:08:13.786Z,95.00
2018-02-11T02:10:39.870Z,95.20
2018-02-11T02:13:07.452Z,95.10
2018-02-11T02:15:33.538Z,95.00
2018-02-11T02:17:59.617Z,94.90
2018-02-11T02:20:25.709Z,94.80
2018-02-11T02:22:51.805Z,94.70
2018-02-11T02:25:18.286Z,94.70
2018-02-11T02:27:44.356Z,94.70
2018-02-11T02:30:10.467Z,94.60
2018-02-11T02:32:36.566Z,94.30
2018-02-11T02:35:03.394Z,94.00
2018-02-11T02:37:29.483Z,94.00
2018-02-11T02:39:55.567Z,94.00
2018-02-11T02:42:21.638Z,93.70
2018-02-11T02:44:47.726Z,94.10
2018-02-11T02:47:13.810Z,94.20
2018-02-11T02:49:39.896Z,94.00
2018-02-11T02:52:05.990Z,94.10
2018-02-11T02:54:32.311Z,94.20
2018-02-11T02:56:58.401Z,95.20
2018-02-11T02:59:24.493Z,94.10
2018-02-11T03:01:50.581Z,94.90
2018-02-11T03:04:16.721Z,94.90
2018-02-11T03:06:42.833Z,94.90
2018-02-11T03:09:09.651Z,94.80
2018-02-11T03:11:35.720Z,94.80
2018-02-11T03:14:01.805Z,94.60
2018-02-11T03:16:27.874Z,94.20
2018-02-11T03:18:53.958Z,94.10
2018-02-11T03:21:20.513Z,93.80
2018-02-11T03:23:46.601Z,93.40
2018-02-11T03:26:12.689Z,93.20
2018-02-11T03:28:38.757Z,92.80
2018-02-11T03:31:04.894Z,92.40
2018-02-11T03:33:30.978Z,91.80
2018-02-11T03:35:57.074Z,91.40
2018-02-11T03:38:23.171Z,90.90
2018-02-11T03:40:49.254Z,90.80
2018-02-11T03:43:15.337Z,90.80
2018-02-11T03:45:41.427Z,90.50
2018-02-11T03:48:07.501Z,90.30
2018-02-11T03:50:34.330Z,90.10
2018-02-11T03:53:00.401Z,90.10
2018-02-11T03:55:26.793Z,89.70
2018-02-11T03:57:53.600Z,89.50
2018-02-11T04:00:20.117Z,89.50
2018-02-11T04:02:46.189Z,89.10
2018-02-11T04:05:12.266Z,89.10
2018-02-11T04:07:38.346Z,88.80
2018-02-11T04:10:04.421Z,88.60
2018-02-11T04:12:30.500Z,88.70
2018-02-11T04:14:57.308Z,88.20
2018-02-11T04:17:23.387Z,88.90
2018-02-11T04:19:49.470Z,88.50
2018-02-11T04:22:15.558Z,88.60
2018-02-11T04:24:41.644Z,88.30
2018-02-11T04:27:08.537Z,87.30
2018-02-11T04:29:34.610Z,87.30
2018-02-11T04:32:00.679Z,87.10
2018-02-11T04:34:27.022Z,86.60
2018-02-11T04:36:53.106Z,86.50
2018-02-11T04:39:19.185Z,86.30
2018-02-11T04:41:45.279Z,85.70
2018-02-11T04:44:11.363Z,85.30
2018-02-11T04:46:38.186Z,85.20
2018-02-11T04:49:04.258Z,85.10
2018-02-11T04:51:30.337Z,85.10
2018-02-11T04:53:56.998Z,84.50
2018-02-11T04:56:23.081Z,84.20
2018-02-11T04:58:49.207Z,83.60
2018-02-11T05:01:15.309Z,83.20
2018-02-11T05:03:41.393Z,82.90
2018-02-11T05:06:07.473Z,82.70
2018-02-11T05:08:33.550Z,82.50
2018-02-11T05:11:00.447Z,82.20
2018-02-11T05:13:26.585Z,82.10
2018-02-11T05:15:52.661Z,81.70
2018-02-11T05:18:18.749Z,81.00
2018-02-11T05:20:44.825Z,80.80
2018-02-11T05:23:10.921Z,80.40
2018-02-11T05:25:37.007Z,80.60
2018-02-11T05:28:03.094Z,80.70
2018-02-11T05:30:29.182Z,80.50
2018-02-11T05:32:56.019Z,80.90
2018-02-11T05:35:22.106Z,80.30
2018-02-11T05:37:48.177Z,82.00
2018-02-11T05:40:15.005Z,85.60
2018-02-11T05:42:41.081Z,84.80
2018-02-11T05:45:07.165Z,86.00
2018-02-11T05:47:33.252Z,86.20
2018-02-11T05:49:59.325Z,86.70
2018-02-11T05:52:26.153Z,86.60
2018-02-11T05:54:52.229Z,86.40
2018-02-11T05:57:18.313Z,87.60
2018-02-11T05:59:45.149Z,87.20
2018-02-11T06:02:11.237Z,86.30
2018-02-11T06:04:37.314Z,86.00
2018-02-11T06:07:03.397Z,86.00
2018-02-11T06:09:29.470Z,85.60
2018-02-11T06:11:56.281Z,85.00
2018-02-11T06:14:22.380Z,84.80
2018-02-11T06:16:48.863Z,84.90
2018-02-11T06:19:14.939Z,85.30
2018-02-11T06:21:41.018Z,85.60
2018-02-11T06:24:07.846Z,85.10
2018-02-11T06:26:43.913Z,85.10
2018-02-11T06:29:10.737Z,85.30
2018-02-11T06:31:36.813Z,85.30
2018-02-11T06:34:02.877Z,85.90
2018-02-11T06:36:28.970Z,86.40
2018-02-11T06:38:55.109Z,87.60
2018-02-11T06:41:21.202Z,88.30
2018-02-11T06:43:47.293Z,89.10
2018-02-11T06:46:13.373Z,90.20
2018-02-11T06:48:39.444Z,91.00
2018-02-11T06:51:06.257Z,90.60
2018-02-11T06:53:32.337Z,90.50
2018-02-11T06:55:58.417Z,90.70
2018-02-11T06:58:24.498Z,90.80
2018-02-11T07:00:50.585Z,90.80
2018-02-11T07:03:16.669Z,90.60
2018-02-11T07:05:42.737Z,90.30
2018-02-11T07:08:08.848Z,90.50
2018-02-11T07:10:34.969Z,91.70
2018-02-11T07:13:01.046Z,92.20
2018-02-11T07:15:27.146Z,92.60
2018-02-11T07:17:53.962Z,94.20
2018-02-11T07:20:20.061Z,94.10
2018-02-11T07:22:46.149Z,95.10
2018-02-11T07:25:12.235Z,95.70
2018-02-11T07:27:38.329Z,96.50
2018-02-11T07:30:04.405Z,97.30
2018-02-11T07:32:30.570Z,96.90
2018-02-11T07:34:56.696Z,97.10
2018-02-11T07:37:22.862Z,97.40
2018-02-11T07:39:48.950Z,98.20
2018-02-11T07:42:15.014Z,98.00
2018-02-11T07:44:41.095Z,98.00
2018-02-11T07:47:07.180Z,97.50
2018-02-11T07:49:33.254Z,97.50
2018-02-11T07:51:59.325Z,98.00
2018-02-11T07:54:25.806Z,98.10
2018-02-11T07:56:51.911Z,98.40
2018-02-11T07:59:18.750Z,98.60
2018-02-11T08:01:45.573Z,98.30
2018-02-11T08:04:11.646Z,98.30
2018-02-11T08:06:37.812Z,98.50
2018-02-11T08:09:03.889Z,98.80
2018-02-11T08:11:29.966Z,98.80
2018-02-11T08:13:56.054Z,99.00
2018-02-11T08:16:22.169Z,98.50
2018-02-11T08:18:48.243Z,98.20
2018-02-11T08:21:14.335Z,98.60
2018-02-11T08:23:40.437Z,99.20
2018-02-11T08:26:06.511Z,99.80
2018-02-11T08:28:32.601Z,99.60
2018-02-11T08:30:58.680Z,99.00
2018-02-11T08:33:24.758Z,99.00
2018-02-11T08:35:50.821Z,99.10
2018-02-11T08:38:16.913Z,98.90
2018-02-11T08:40:42.983Z,99.10
2018-02-11T08:43:09.066Z,99.10
2018-02-11T08:45:35.159Z,98.80
2018-02-11T08:48:01.262Z,99.00
2018-02-11T08:50:27.652Z,98.70
2018-02-11T08:52:53.778Z,98.40
2018-02-11T08:55:19.925Z,97.70
2018-02-11T08:57:46.058Z,98.50
2018-02-11T09:00:12.138Z,98.70
2018-02-11T09:02:38.221Z,98.70
2018-02-11T09:05:04.309Z,98.60
2018-02-11T09:07:30.445Z,98.40
2018-02-11T09:09:56.621Z,97.80
2018-02-11T09:12:23.438Z,97.50
2018-02-11T09:14:49.509Z,97.30
2018-02-11T09:17:15.963Z,97.20
2018-02-11T09:19:42.040Z,96.60
2018-02-11T09:22:08.138Z,96.50
2018-02-11T09:24:34.214Z,96.30
2018-02-11T09:27:00.348Z,96.40
2018-02-11T09:29:26.433Z,95.90
2018-02-11T09:31:52.511Z,95.70
2018-02-11T09:34:18.586Z,95.30
2018-02-11T09:36:44.673Z,95.00
2018-02-11T09:39:10.741Z,95.10
2018-02-11T09:41:36.813Z,95.00
2018-02-11T09:44:02.881Z,95.00
2018-02-11T09:46:28.954Z,95.20
2018-02-11T09:48:55.037Z,95.50
2018-02-11T09:51:21.861Z,95.90
2018-02-11T09:53:47.966Z,95.80
2018-02-11T09:56:14.537Z,96.20
2018-02-11T09:58:40.703Z,96.80
2018-02-11T10:01:07.478Z,97.80
2018-02-11T10:03:33.563Z,97.80
2018-02-11T10:05:59.629Z,98.00
2018-02-11T10:08:25.701Z,98.30
2018-02-11T10:10:52.285Z,98.00
2018-02-11T10:13:18.802Z,98.00
2018-02-11T10:15:46.653Z,97.70
2018-02-11T10:18:14.975Z,97.50
2018-02-11T10:20:41.034Z,97.40
2018-02-11T10:23:08.756Z,96.70
2018-02-11T10:25:35.854Z,96.60
2018-02-11T10:28:03.196Z,96.70
2018-02-11T10:30:30.045Z,96.70
2018-02-11T10:32:56.117Z,96.60
2018-02-11T10:35:25.431Z,96.50
2018-02-11T10:37:51.806Z,96.50
2018-02-11T10:40:18.630Z,95.80
2018-02-11T10:42:44.701Z,95.80
2018-02-11T10:45:10.773Z,96.00
2018-02-11T10:47:36.852Z,96.30
2018-02-11T10:50:02.994Z,96.50
2018-02-11T10:52:29.069Z,96.40
2018-02-11T10:54:55.173Z,96.00
2018-02-11T10:57:21.258Z,96.00
2018-02-11T10:59:47.330Z,95.40
2018-02-11T11:02:13.414Z,94.80
2018-02-11T11:04:40.393Z,94.70
2018-02-11T11:07:06.506Z,94.40
2018-02-11T11:09:32.588Z,93.80
2018-02-11T11:11:58.673Z,93.80
2018-02-11T11:14:24.770Z,93.90
2018-02-11T11:16:50.852Z,93.80
2018-02-11T11:19:16.921Z,93.90
2018-02-11T11:21:43.115Z,93.90
2018-02-11T11:24:09.186Z,93.90
2018-02-11T11:26:35.277Z,94.30
2018-02-11T11:29:04.545Z,94.30
2018-02-11T11:31:30.660Z,94.60
2018-02-11T11:33:56.777Z,94.40
2018-02-11T11:36:23.625Z,94.50
2018-02-11T11:38:49.690Z,94.30
2018-02-11T11:41:15.768Z,93.50
2018-02-11T11:43:41.879Z,93.00
2018-02-11T11:46:07.946Z,93.00
2018-02-11T11:48:34.778Z,91.80
2018-02-11T11:51:01.626Z,91.10
2018-02-11T11:53:27.673Z,90.90
2018-02-11T11:55:53.737Z,91.50
2018-02-11T11:58:19.809Z,91.40
2018-02-11T12:00:45.901Z,90.90
2018-02-11T12:03:11.969Z,90.00
2018-02-11T12:05:38.065Z,90.80
2018-02-11T12:08:04.893Z,88.20
2018-02-11T12:10:30.960Z,88.20
2018-02-11T12:12:57.039Z,87.60
2018-02-11T12:15:23.139Z,87.40
2018-02-11T12:17:49.258Z,87.90
2018-02-11T12:20:15.376Z,87.70
2018-02-11T12:22:41.461Z,88.00
2018-02-11T12:25:08.290Z,88.50
2018-02-11T12:27:34.355Z,88.40
2018-02-11T12:30:00.478Z,88.50
2018-02-11T12:32:26.554Z,89.00
2018-02-11T12:34:52.701Z,89.00
2018-02-11T12:37:19.545Z,88.30
2018-02-11T12:39:45.657Z,88.30
2018-02-11T12:42:11.742Z,88.30
2018-02-11T12:44:37.822Z,88.30
2018-02-11T12:47:03.933Z,88.70
2018-02-11T12:49:30.011Z,89.40
2018-02-11T12:51:56.077Z,89.90
2018-02-11T12:54:22.898Z,89.80
2018-02-11T12:56:48.962Z,89.80
2018-02-11T12:59:15.773Z,89.30
2018-02-11T13:01:41.869Z,89.30
2018-02-11T13:04:07.937Z,89.00
2018-02-11T13:06:34.022Z,88.80
2018-02-11T13:09:00.097Z,88.90
2018-02-11T13:11:26.189Z,88.20
2018-02-11T13:13:52.292Z,88.00
2018-02-11T13:16:18.386Z,87.70
2018-02-11T13:18:45.222Z,85.40
2018-02-11T13:21:12.062Z,85.20
2018-02-11T13:23:38.133Z,85.60
2018-02-11T13:26:04.207Z,84.80
2018-02-11T13:28:30.277Z,84.90
2018-02-11T13:30:56.393Z,85.20
2018-02-11T13:33:22.453Z,84.90
2018-02-11T13:35:48.522Z,83.90
2018-02-11T13:38:14.590Z,83.60
2018-02-11T13:40:40.679Z,84.10
2018-02-11T13:43:06.782Z,84.20
2018-02-11T13:45:32.853Z,84.30
2018-02-11T13:47:58.943Z,84.00
2018-02-11T13:50:25.041Z,83.40
2018-02-11T13:52:51.134Z,83.30
2018-02-11T13:55:17.206Z,83.80
2018-02-11T13:57:43.346Z,84.20
2018-02-11T14:00:10.160Z,84.40
2018-02-11T14:02:36.471Z,84.20
2018-02-11T14:05:02.599Z,84.80
2018-02-11T14:07:28.671Z,85.10
2018-02-11T14:09:55.496Z,85.20
2018-02-11T14:12:21.566Z,85.20
2018-02-11T14:14:47.644Z,85.40
2018-02-11T14:17:13.745Z,85.40
2018-02-11T14:19:40.213Z,85.30
2018-02-11T14:22:06.274Z,84.60
2018-02-11T14:24:32.365Z,83.90
2018-02-11T14:26:59.182Z,82.90
2018-02-11T14:29:25.279Z,82.40
2018-02-11T14:31:51.415Z,81.90
2018-02-11T14:34:17.486Z,81.60
2018-02-11T14:36:43.726Z,81.60
2018-02-11T14:39:10.542Z,80.30
2018-02-11T14:41:36.616Z,80.20
2018-02-11T14:44:02.698Z,80.20
2018-02-11T14:46:28.825Z,80.50
2018-02-11T14:48:54.930Z,80.90
2018-02-11T14:51:20.997Z,81.50
2018-02-11T14:53:47.076Z,81.80
2018-02-11T14:56:13.149Z,81.90
2018-02-11T14:58:39.226Z,82.00
2018-02-11T15:01:05.323Z,82.40
2018-02-11T15:03:31.402Z,82.50
2018-02-11T15:05:57.475Z,82.50
2018-02-11T15:08:23.533Z,82.40
2018-02-11T15:10:49.606Z,82.80
2018-02-11T15:13:15.701Z,82.80
2018-02-11T15:15:42.505Z,82.30
2018-02-11T15:18:08.575Z,82.20
2018-02-11T15:20:35.385Z,81.50
2018-02-11T15:23:01.469Z,81.40
2018-02-11T15:25:27.534Z,81.20
2018-02-11T15:27:53.650Z,81.00
2018-02-11T15:30:19.745Z,81.40
2018-02-11T15:32:45.937Z,81.80
2018-02-11T15:35:12.086Z,82.50
2018-02-11T15:37:38.331Z,82.70
2018-02-11T15:40:04.398Z,83.00
2018-02-11T15:42:30.530Z,83.00
2018-02-11T15:44:57.518Z,81.90
2018-02-11T15:47:23.589Z,81.80
2018-02-11T15:49:49.670Z,80.80
2018-02-11T15:52:16.083Z,80.20
2018-02-11T15:54:42.959Z,79.60
2018-02-11T15:57:09.050Z,79.60
2018-02-11T15:59:35.865Z,78.20
2018-02-11T16:02:01.950Z,78.10
2018-02-11T16:04:28.020Z,78.30
2018-02-11T16:06:54.105Z,78.20
2018-02-11T16:09:20.177Z,78.50
2018-02-11T16:11:47.726Z,76.70
2018-02-11T16:14:13.797Z,76.70
2018-02-11T16:16:39.873Z,77.30
2018-02-11T16:19:05.961Z,76.50
2018-02-11T16:21:32.045Z,75.60
2018-02-11T16:23:58.145Z,74.80
2018-02-11T16:26:24.210Z,74.40
2018-02-11T16:28:50.319Z,74.40
2018-02-11T16:31:16.392Z,74.50
2018-02-11T16:33:42.689Z,74.30
2018-02-11T16:36:08.764Z,74.00
2018-02-11T16:38:34.833Z,74.30
2018-02-11T16:41:01.678Z,73.10
2018-02-11T16:43:28.306Z,73.00
2018-02-11T16:45:54.381Z,71.80
2018-02-11T16:48:20.481Z,70.60
2018-02-11T16:50:46.553Z,70.10
2018-02-11T16:53:12.625Z,69.80
2018-02-11T16:55:39.448Z,68.80
2018-02-11T16:58:05.519Z,68.70
2018-02-11T17:00:31.586Z,68.30
2018-02-11T17:02:57.675Z,68.10
2018-02-11T17:05:23.758Z,68.10
2018-02-11T17:07:51.007Z,67.50
2018-02-11T17:10:17.830Z,67.10
2018-02-11T17:12:43.893Z,67.10
2018-02-11T17:15:09.966Z,67.30
2018-02-11T17:17:36.051Z,67.40
2018-02-11T17:20:02.141Z,67.10
2018-02-11T17:22:28.967Z,66.90
2018-02-11T17:24:55.043Z,66.80
2018-02-11T17:27:21.123Z,67.00
2018-02-11T17:29:47.841Z,67.30
2018-02-11T17:32:13.913Z,67.70
2018-02-11T17:34:40.732Z,67.70
2018-02-11T17:37:06.817Z,67.70
2018-02-11T17:39:32.915Z,67.90
2018-02-11T17:41:59.012Z,67.90
2018-02-11T17:44:25.105Z,67.80
2018-02-11T17:46:51.177Z,67.60
2018-02-11T17:49:18.006Z,67.90
2018-02-11T17:51:44.090Z,67.90
2018-02-11T17:54:10.161Z,67.50
2018-02-11T17:56:36.253Z,67.50
2018-02-11T17:59:02.405Z,67.60
2018-02-11T18:01:28.485Z,67.80
2018-02-11T18:03:54.557Z,67.90
2018-02-11T18:06:20.633Z,67.80
2018-02-11T18:08:46.730Z,67.70
2018-02-11T18:11:12.800Z,68.00
2018-02-11T18:13:38.878Z,68.50
2018-02-11T18:16:05.710Z,69.00
2018-02-11T18:18:32.536Z,69.10
2018-02-11T18:21:05.485Z,69.10
2018-02-11T18:23:31.553Z,69.30
2018-02-11T18:25:57.949Z,69.70
2018-02-11T18:28:24.041Z,70.00
2018-02-11T18:30:50.124Z,69.30
2018-02-11T18:33:16.208Z,68.90
2018-02-11T18:35:42.297Z,68.80
2018-02-11T18:38:08.365Z,68.90
2018-02-11T18:40:34.435Z,68.90
2018-02-11T18:43:00.509Z,69.10
2018-02-11T18:45:26.587Z,69.40
2018-02-11T18:47:53.433Z,69.80
2018-02-11T18:50:19.518Z,69.70
2018-02-11T18:52:45.594Z,69.90
2018-02-11T18:55:12.873Z,69.90
2018-02-11T18:57:39.169Z,69.80
2018-02-11T19:00:05.625Z,69.70
2018-02-11T19:02:31.709Z,69.60
2018-02-11T19:04:57.789Z,70.00
2018-02-11T19:07:23.873Z,70.40
2018-02-11T19:09:50.249Z,70.10
2018-02-11T19:12:16.378Z,70.00
2018-02-11T19:14:42.453Z,70.20
2018-02-11T19:17:08.560Z,70.20
2018-02-11T19:19:34.666Z,70.40
2018-02-11T19:22:00.763Z,71.00
2018-02-11T19:24:26.849Z,71.10
2018-02-11T19:26:53.410Z,71.30
2018-02-11T19:29:19.516Z,71.70
2018-02-11T19:31:45.618Z,71.60
2018-02-11T19:34:11.693Z,72.10
2018-02-11T19:36:38.579Z,72.70
2018-02-11T19:39:04.742Z,72.60
2018-02-11T19:41:30.822Z,72.50
2018-02-11T19:43:56.933Z,72.40
2018-02-11T19:46:23.006Z,72.70
2018-02-11T19:48:49.093Z,72.80
2018-02-11T19:51:15.852Z,73.00
2018-02-11T19:53:41.927Z,73.30
2018-02-11T19:56:08.225Z,73.60
2018-02-11T19:58:34.324Z,73.60
2018-02-11T20:01:00.605Z,73.70
2018-02-11T20:03:27.456Z,73.90
2018-02-11T20:05:53.545Z,73.80
2018-02-11T20:08:19.626Z,74.30
2018-02-11T20:10:45.704Z,74.50
2018-02-11T20:13:11.797Z,74.60
2018-02-11T20:15:38.115Z,74.60
2018-02-11T20:18:04.204Z,74.60
2018-02-11T20:20:31.345Z,74.80
2018-02-11T20:22:58.187Z,75.00
2018-02-11T20:25:24.281Z,74.90
2018-02-11T20:27:50.375Z,75.30
2018-02-11T20:30:18.261Z,75.30
2018-02-11T20:32:44.369Z,75.60
2018-02-11T20:35:15.189Z,76.00
2018-02-11T20:37:41.753Z,76.30
2018-02-11T20:40:07.831Z,76.20
2018-02-11T20:42:36.132Z,76.50
2018-02-11T20:45:02.285Z,76.50
2018-02-11T20:47:28.376Z,76.30
2018-02-11T20:49:55.057Z,76.70
2018-02-11T20:52:21.150Z,76.70
2018-02-11T20:54:47.621Z,76.60
2018-02-11T20:57:13.777Z,76.40
2018-02-11T20:59:40.608Z,77.30
2018-02-11T21:02:06.693Z,76.30
2018-02-11T21:04:32.772Z,76.80
2018-02-11T21:06:58.869Z,77.10
2018-02-11T21:09:24.962Z,77.30
2018-02-11T21:11:51.045Z,77.60
2018-02-11T21:14:17.153Z,77.80
2018-02-11T21:16:43.238Z,78.00
2018-02-11T21:19:09.313Z,77.90
2018-02-11T21:21:35.401Z,78.00
2018-02-11T21:24:01.507Z,78.10
2018-02-11T21:26:27.839Z,78.30
2018-02-11T21:28:53.918Z,78.50
2018-02-11T21:31:20.036Z,78.40
2018-02-11T21:33:46.128Z,78.40
2018-02-11T21:36:12.230Z,78.80
2018-02-11T21:38:38.310Z,79.10
2018-02-11T21:41:04.397Z,79.20
2018-02-11T21:43:30.542Z,79.80
2018-02-11T21:45:56.634Z,80.00
2018-02-11T21:48:22.737Z,80.10
2018-02-11T21:50:48.825Z,80.10
2018-02-11T21:53:14.973Z,80.20
2018-02-11T21:55:41.089Z,80.70
2018-02-11T21:58:07.166Z,80.60
2018-02-11T22:00:33.262Z,80.80
2018-02-11T22:02:59.384Z,81.00
2018-02-11T22:05:25.473Z,80.90
2018-02-11T22:07:51.561Z,81.70
2018-02-11T22:10:17.641Z,81.70
2018-02-11T22:12:50.773Z,81.90
2018-02-11T22:15:16.858Z,82.00
2018-02-11T22:17:42.989Z,82.20
2018-02-11T22:20:09.091Z,82.70
2018-02-11T22:22:35.229Z,82.60
2018-02-11T22:25:01.726Z,82.40
2018-02-11T22:27:27.842Z,82.60
2018-02-11T22:29:53.942Z,82.60
2018-02-11T22:32:20.049Z,82.60
2018-02-11T22:34:46.139Z,82.70
2018-02-11T22:37:12.218Z,83.00
2018-02-11T22:39:38.313Z,83.30
2018-02-11T22:42:04.409Z,83.50
2018-02-11T22:44:30.506Z,83.60
2018-02-11T22:46:57.323Z,83.80
2018-02-11T22:49:23.393Z,83.70
2018-02-11T22:51:49.489Z,83.80
2018-02-11T22:54:15.929Z,83.70
2018-02-11T22:56:42.749Z,84.00
2018-02-11T22:59:08.829Z,83.90
2018-02-11T23:01:34.915Z,84.00
2018-02-11T23:04:01.001Z,83.80
2018-02-11T23:06:27.093Z,83.70
2018-02-11T23:08:53.165Z,84.00
2018-02-11T23:11:19.345Z,84.30
2018-02-11T23:13:45.418Z,84.50
2018-02-11T23:16:11.502Z,84.90
2018-02-11T23:18:37.570Z,85.50
2018-02-11T23:21:03.645Z,85.60
2018-02-11T23:23:29.737Z,86.00
2018-02-11T23:25:55.816Z,86.50
2018-02-11T23:28:21.901Z,87.00
2018-02-11T23:30:48.725Z,87.60
2018-02-11T23:33:15.538Z,88.00
2018-02-11T23:35:41.632Z,88.00
2018-02-11T23:38:07.709Z,88.30
2018-02-11T23:40:33.777Z,88.70
2018-02-11T23:42:59.881Z,88.70
2018-02-11T23:45:26.719Z,88.80
2018-02-11T23:47:52.796Z,88.70
2018-02-11T23:50:18.885Z,88.80
2018-02-11T23:52:44.949Z,88.90
2018-02-11T23:55:11.038Z,88.80
2018-02-11T23:57:38.265Z,89.10
